sensor_id;sensor_type;location;lat;lon;timestamp;temperature;humidity
2945;DHT22;1482;51.398;7.128;2023-08-06T00:01:42;16.10;1.00
2945;DHT22;1482;51.398;7.128;2023-08-06T00:04:07;16.10;1.00
2945;DHT22;1482;51.398;7.128;2023-08-06T00:06:33;16.10;1.00
2945;DHT22;1482;51.398;7.128;2023-08-06T00:08:58;16.10;1.00
2945;DHT22;1482;51.398;7.128;2023-08-06T00:11:24;16.20;1.00
2945;DHT22;1482;51.398;7.128;2023-08-06T00:13:49;16.20;1.00
2945;DHT22;1482;51.398;7.128;2023-08-06T00:16:15;16.20;1.00
2945;DHT22;1482;51.398;7.128;2023-08-06T00:18:40;16.10;1.00
2945;DHT22;1482;51.398;7.128;2023-08-06T00:21:06;16.20;1.00
2945;DHT22;1482;51.398;7.128;2023-08-06T00:23:31;16.10;1.00
2945;DHT22;1482;51.398;7.128;2023-08-06T00:25:57;16.10;1.00
2945;DHT22;1482;51.398;7.128;2023-08-06T00:28:22;16.10;1.00
2945;DHT22;1482;51.398;7.128;2023-08-06T00:30:55;16.10;1.00
2945;DHT22;1482;51.398;7.128;2023-08-06T00:33:24;16.10;1.00
2945;DHT22;1482;51.398;7.128;2023-08-06T00:35:50;16.10;1.00
2945;DHT22;1482;51.398;7.128;2023-08-06T00:38:16;16.00;1.00
2945;DHT22;1482;51.398;7.128;2023-08-06T00:40:41;16.00;1.00
2945;DHT22;1482;51.398;7.128;2023-08-06T00:43:07;16.00;1.00
2945;DHT22;1482;51.398;7.128;2023-08-06T00:45:35;16.10;1.00
2945;DHT22;1482;51.398;7.128;2023-08-06T00:48:03;16.00;1.00
2945;DHT22;1482;51.398;7.128;2023-08-06T00:50:29;16.10;1.00
2945;DHT22;1482;51.398;7.128;2023-08-06T00:52:55;16.10;1.00
2945;DHT22;1482;51.398;7.128;2023-08-06T00:55:20;16.00;1.00
2945;DHT22;1482;51.398;7.128;2023-08-06T00:57:46;16.00;1.00
2945;DHT22;1482;51.398;7.128;2023-08-06T01:00:12;16.00;1.00
2945;DHT22;1482;51.398;7.128;2023-08-06T01:02:37;16.00;1.00
2945;DHT22;1482;51.398;7.128;2023-08-06T01:05:03;16.00;1.00
2945;DHT22;1482;51.398;7.128;2023-08-06T01:10:19;16.00;1.00
2945;DHT22;1482;51.398;7.128;2023-08-06T01:15:29;16.00;1.00
2945;DHT22;1482;51.398;7.128;2023-08-06T01:17:57;16.00;1.00
2945;DHT22;1482;51.398;7.128;2023-08-06T01:20:28;16.00;1.00
2945;DHT22;1482;51.398;7.128;2023-08-06T01:22:54;16.00;1.00
2945;DHT22;1482;51.398;7.128;2023-08-06T01:25:20;16.00;1.00
2945;DHT22;1482;51.398;7.128;2023-08-06T01:27:49;16.00;1.00
2945;DHT22;1482;51.398;7.128;2023-08-06T01:30:20;16.00;1.00
2945;DHT22;1482;51.398;7.128;2023-08-06T01:32:52;16.00;1.00
2945;DHT22;1482;51.398;7.128;2023-08-06T01:35:19;16.00;1.00
2945;DHT22;1482;51.398;7.128;2023-08-06T01:37:46;16.00;1.00
2945;DHT22;1482;51.398;7.128;2023-08-06T01:40:13;16.00;1.00
2945;DHT22;1482;51.398;7.128;2023-08-06T01:42:39;16.00;1.00
2945;DHT22;1482;51.398;7.128;2023-08-06T01:45:08;15.90;1.00
2945;DHT22;1482;51.398;7.128;2023-08-06T01:47:34;16.00;1.00
2945;DHT22;1482;51.398;7.128;2023-08-06T01:50:00;16.00;1.00
2945;DHT22;1482;51.398;7.128;2023-08-06T01:52:26;16.00;1.00
2945;DHT22;1482;51.398;7.128;2023-08-06T01:54:51;16.00;1.00
2945;DHT22;1482;51.398;7.128;2023-08-06T01:57:17;16.00;1.00
2945;DHT22;1482;51.398;7.128;2023-08-06T01:59:43;15.90;1.00
2945;DHT22;1482;51.398;7.128;2023-08-06T02:02:09;15.90;1.00
2945;DHT22;1482;51.398;7.128;2023-08-06T02:04:34;16.00;1.00
2945;DHT22;1482;51.398;7.128;2023-08-06T02:07:00;16.00;1.00
2945;DHT22;1482;51.398;7.128;2023-08-06T02:09:25;15.90;1.00
2945;DHT22;1482;51.398;7.128;2023-08-06T02:11:51;15.90;1.00
2945;DHT22;1482;51.398;7.128;2023-08-06T02:14:17;15.90;1.00
2945;DHT22;1482;51.398;7.128;2023-08-06T02:16:42;16.00;1.00
2945;DHT22;1482;51.398;7.128;2023-08-06T02:19:08;15.90;1.00
2945;DHT22;1482;51.398;7.128;2023-08-06T02:21:33;16.00;1.00
2945;DHT22;1482;51.398;7.128;2023-08-06T02:23:59;16.00;1.00
2945;DHT22;1482;51.398;7.128;2023-08-06T02:26:24;16.00;1.00
2945;DHT22;1482;51.398;7.128;2023-08-06T02:28:50;16.00;1.00
2945;DHT22;1482;51.398;7.128;2023-08-06T02:31:15;16.00;1.00
2945;DHT22;1482;51.398;7.128;2023-08-06T02:33:41;16.00;1.00
2945;DHT22;1482;51.398;7.128;2023-08-06T02:36:06;16.00;1.00
2945;DHT22;1482;51.398;7.128;2023-08-06T02:38:32;15.90;1.00
2945;DHT22;1482;51.398;7.128;2023-08-06T02:40:58;15.90;1.00
2945;DHT22;1482;51.398;7.128;2023-08-06T02:43:24;15.90;1.00
2945;DHT22;1482;51.398;7.128;2023-08-06T02:45:49;15.90;1.00
2945;DHT22;1482;51.398;7.128;2023-08-06T02:48:15;16.00;1.00
2945;DHT22;1482;51.398;7.128;2023-08-06T02:50:41;16.00;1.00
2945;DHT22;1482;51.398;7.128;2023-08-06T02:53:09;16.00;1.00
2945;DHT22;1482;51.398;7.128;2023-08-06T02:55:35;16.00;1.00
2945;DHT22;1482;51.398;7.128;2023-08-06T02:58:01;16.00;1.00
2945;DHT22;1482;51.398;7.128;2023-08-06T03:00:27;16.10;1.00
2945;DHT22;1482;51.398;7.128;2023-08-06T03:02:53;16.10;1.00
2945;DHT22;1482;51.398;7.128;2023-08-06T03:05:18;16.10;1.00
2945;DHT22;1482;51.398;7.128;2023-08-06T03:07:44;16.10;1.00
2945;DHT22;1482;51.398;7.128;2023-08-06T03:10:10;16.10;1.00
2945;DHT22;1482;51.398;7.128;2023-08-06T03:12:35;16.10;1.00
2945;DHT22;1482;51.398;7.128;2023-08-06T03:15:01;16.10;99.90
2945;DHT22;1482;51.398;7.128;2023-08-06T03:17:26;16.00;1.00
2945;DHT22;1482;51.398;7.128;2023-08-06T03:19:52;16.00;99.90
2945;DHT22;1482;51.398;7.128;2023-08-06T03:22:17;16.00;99.90
2945;DHT22;1482;51.398;7.128;2023-08-06T03:24:43;16.00;1.00
2945;DHT22;1482;51.398;7.128;2023-08-06T03:27:08;16.00;1.00
2945;DHT22;1482;51.398;7.128;2023-08-06T03:29:34;16.00;1.00
2945;DHT22;1482;51.398;7.128;2023-08-06T03:31:59;16.00;1.00
2945;DHT22;1482;51.398;7.128;2023-08-06T03:34:25;16.00;1.00
2945;DHT22;1482;51.398;7.128;2023-08-06T03:36:50;16.00;1.00
2945;DHT22;1482;51.398;7.128;2023-08-06T03:39:16;16.00;1.00
2945;DHT22;1482;51.398;7.128;2023-08-06T03:41:41;15.90;1.00
2945;DHT22;1482;51.398;7.128;2023-08-06T03:44:07;15.90;1.00
2945;DHT22;1482;51.398;7.128;2023-08-06T03:46:32;16.00;1.00
2945;DHT22;1482;51.398;7.128;2023-08-06T03:48:59;16.00;1.00
2945;DHT22;1482;51.398;7.128;2023-08-06T03:51:25;16.00;1.00
2945;DHT22;1482;51.398;7.128;2023-08-06T03:53:50;16.00;1.00
2945;DHT22;1482;51.398;7.128;2023-08-06T03:56:16;16.00;1.00
2945;DHT22;1482;51.398;7.128;2023-08-06T03:58:41;16.00;1.00
2945;DHT22;1482;51.398;7.128;2023-08-06T04:01:07;16.00;1.00
2945;DHT22;1482;51.398;7.128;2023-08-06T04:03:33;16.00;1.00
2945;DHT22;1482;51.398;7.128;2023-08-06T04:05:58;15.90;1.00
2945;DHT22;1482;51.398;7.128;2023-08-06T04:08:24;15.90;1.00
2945;DHT22;1482;51.398;7.128;2023-08-06T04:10:53;15.90;1.00
2945;DHT22;1482;51.398;7.128;2023-08-06T04:13:19;15.90;1.00
2945;DHT22;1482;51.398;7.128;2023-08-06T04:15:45;15.90;1.00
2945;DHT22;1482;51.398;7.128;2023-08-06T04:18:11;15.90;1.00
2945;DHT22;1482;51.398;7.128;2023-08-06T04:20:46;15.90;1.00
2945;DHT22;1482;51.398;7.128;2023-08-06T04:23:14;15.90;1.00
2945;DHT22;1482;51.398;7.128;2023-08-06T04:25:40;15.90;1.00
2945;DHT22;1482;51.398;7.128;2023-08-06T04:28:07;16.00;1.00
2945;DHT22;1482;51.398;7.128;2023-08-06T04:30:33;16.00;1.00
2945;DHT22;1482;51.398;7.128;2023-08-06T04:32:58;16.00;1.00
2945;DHT22;1482;51.398;7.128;2023-08-06T04:35:24;16.10;1.00
2945;DHT22;1482;51.398;7.128;2023-08-06T04:37:50;16.10;1.00
2945;DHT22;1482;51.398;7.128;2023-08-06T04:40:15;16.20;1.00
2945;DHT22;1482;51.398;7.128;2023-08-06T04:42:41;16.20;99.90
2945;DHT22;1482;51.398;7.128;2023-08-06T04:45:07;16.30;99.90
2945;DHT22;1482;51.398;7.128;2023-08-06T04:47:32;16.30;99.90
2945;DHT22;1482;51.398;7.128;2023-08-06T04:49:58;16.40;99.90
2945;DHT22;1482;51.398;7.128;2023-08-06T04:52:24;16.50;99.90
2945;DHT22;1482;51.398;7.128;2023-08-06T04:54:53;16.60;99.90
2945;DHT22;1482;51.398;7.128;2023-08-06T04:57:18;16.80;99.90
2945;DHT22;1482;51.398;7.128;2023-08-06T04:59:44;16.90;99.90
2945;DHT22;1482;51.398;7.128;2023-08-06T05:02:09;17.10;99.90
2945;DHT22;1482;51.398;7.128;2023-08-06T05:04:35;17.30;99.90
2945;DHT22;1482;51.398;7.128;2023-08-06T05:07:00;17.40;99.90
2945;DHT22;1482;51.398;7.128;2023-08-06T05:09:26;17.60;99.90
2945;DHT22;1482;51.398;7.128;2023-08-06T05:11:51;18.20;99.90
2945;DHT22;1482;51.398;7.128;2023-08-06T05:14:17;18.40;99.90
2945;DHT22;1482;51.398;7.128;2023-08-06T05:16:42;18.70;99.90
2945;DHT22;1482;51.398;7.128;2023-08-06T05:19:08;19.30;99.90
2945;DHT22;1482;51.398;7.128;2023-08-06T05:21:33;19.50;48.70
2945;DHT22;1482;51.398;7.128;2023-08-06T05:23:59;19.60;49.50
2945;DHT22;1482;51.398;7.128;2023-08-06T05:26:24;20.10;27.10
2945;DHT22;1482;51.398;7.128;2023-08-06T05:28:50;20.20;23.00
2945;DHT22;1482;51.398;7.128;2023-08-06T05:31:15;20.20;17.20
2945;DHT22;1482;51.398;7.128;2023-08-06T05:33:41;20.20;20.30
2945;DHT22;1482;51.398;7.128;2023-08-06T05:36:06;20.10;9.80
2945;DHT22;1482;51.398;7.128;2023-08-06T05:38:32;20.00;10.70
2945;DHT22;1482;51.398;7.128;2023-08-06T05:40:57;19.70;11.70
2945;DHT22;1482;51.398;7.128;2023-08-06T05:43:23;19.40;19.60
2945;DHT22;1482;51.398;7.128;2023-08-06T05:45:51;19.30;29.10
2945;DHT22;1482;51.398;7.128;2023-08-06T05:48:17;19.10;34.80
2945;DHT22;1482;51.398;7.128;2023-08-06T05:50:43;18.90;42.10
2945;DHT22;1482;51.398;7.128;2023-08-06T05:53:08;18.80;52.90
2945;DHT22;1482;51.398;7.128;2023-08-06T05:55:34;18.70;59.30
2945;DHT22;1482;51.398;7.128;2023-08-06T05:58:00;18.70;72.80
2945;DHT22;1482;51.398;7.128;2023-08-06T06:00:26;18.60;86.30
2945;DHT22;1482;51.398;7.128;2023-08-06T06:02:52;18.70;90.30
2945;DHT22;1482;51.398;7.128;2023-08-06T06:05:17;18.70;92.80
2945;DHT22;1482;51.398;7.128;2023-08-06T06:07:43;18.80;99.90
2945;DHT22;1482;51.398;7.128;2023-08-06T06:10:09;18.80;99.90
2945;DHT22;1482;51.398;7.128;2023-08-06T06:12:34;19.00;98.00
2945;DHT22;1482;51.398;7.128;2023-08-06T06:15:00;19.00;99.90
2945;DHT22;1482;51.398;7.128;2023-08-06T06:17:29;19.10;96.50
2945;DHT22;1482;51.398;7.128;2023-08-06T06:19:54;19.20;98.80
2945;DHT22;1482;51.398;7.128;2023-08-06T06:22:20;19.40;91.30
2945;DHT22;1482;51.398;7.128;2023-08-06T06:24:46;19.50;79.30
2945;DHT22;1482;51.398;7.128;2023-08-06T06:27:11;19.70;65.90
2945;DHT22;1482;51.398;7.128;2023-08-06T06:29:37;19.80;55.60
2945;DHT22;1482;51.398;7.128;2023-08-06T06:32:02;20.00;49.00
2945;DHT22;1482;51.398;7.128;2023-08-06T06:34:28;20.40;46.40
2945;DHT22;1482;51.398;7.128;2023-08-06T06:36:54;20.60;34.90
2945;DHT22;1482;51.398;7.128;2023-08-06T06:39:20;21.00;23.90
2945;DHT22;1482;51.398;7.128;2023-08-06T06:41:46;21.30;14.00
2945;DHT22;1482;51.398;7.128;2023-08-06T06:44:11;21.70;8.00
2945;DHT22;1482;51.398;7.128;2023-08-06T06:46:37;22.00;3.60
2945;DHT22;1482;51.398;7.128;2023-08-06T06:49:02;22.40;1.00
2945;DHT22;1482;51.398;7.128;2023-08-06T06:51:28;22.80;1.00
2945;DHT22;1482;51.398;7.128;2023-08-06T06:53:53;23.40;1.00
2945;DHT22;1482;51.398;7.128;2023-08-06T06:56:19;23.90;1.00
2945;DHT22;1482;51.398;7.128;2023-08-06T06:58:44;24.40;1.00
2945;DHT22;1482;51.398;7.128;2023-08-06T07:01:11;24.80;1.00
2945;DHT22;1482;51.398;7.128;2023-08-06T07:03:37;25.10;1.00
2945;DHT22;1482;51.398;7.128;2023-08-06T07:06:03;25.50;1.00
2945;DHT22;1482;51.398;7.128;2023-08-06T07:08:29;26.30;1.00
2945;DHT22;1482;51.398;7.128;2023-08-06T07:11:05;27.10;1.00
2945;DHT22;1482;51.398;7.128;2023-08-06T07:13:31;27.90;1.00
2945;DHT22;1482;51.398;7.128;2023-08-06T07:15:57;28.70;1.00
2945;DHT22;1482;51.398;7.128;2023-08-06T07:18:23;29.90;1.00
2945;DHT22;1482;51.398;7.128;2023-08-06T07:20:50;30.40;1.00
2945;DHT22;1482;51.398;7.128;2023-08-06T07:23:15;30.50;1.00
2945;DHT22;1482;51.398;7.128;2023-08-06T07:25:41;30.40;1.00
2945;DHT22;1482;51.398;7.128;2023-08-06T07:28:06;29.80;1.00
2945;DHT22;1482;51.398;7.128;2023-08-06T07:30:32;29.50;1.00
2945;DHT22;1482;51.398;7.128;2023-08-06T07:32:58;28.90;1.00
2945;DHT22;1482;51.398;7.128;2023-08-06T07:35:23;28.30;1.00
2945;DHT22;1482;51.398;7.128;2023-08-06T07:37:49;27.70;1.00
2945;DHT22;1482;51.398;7.128;2023-08-06T07:40:14;27.10;1.00
2945;DHT22;1482;51.398;7.128;2023-08-06T07:42:40;26.50;1.00
2945;DHT22;1482;51.398;7.128;2023-08-06T07:45:07;25.90;1.00
2945;DHT22;1482;51.398;7.128;2023-08-06T07:47:33;25.40;1.00
2945;DHT22;1482;51.398;7.128;2023-08-06T07:49:58;24.90;1.00
2945;DHT22;1482;51.398;7.128;2023-08-06T07:52:24;24.40;1.00
2945;DHT22;1482;51.398;7.128;2023-08-06T07:54:50;24.00;1.00
2945;DHT22;1482;51.398;7.128;2023-08-06T07:57:16;23.70;1.00
2945;DHT22;1482;51.398;7.128;2023-08-06T07:59:42;23.50;1.00
2945;DHT22;1482;51.398;7.128;2023-08-06T08:02:07;23.30;1.00
2945;DHT22;1482;51.398;7.128;2023-08-06T08:04:33;23.20;1.00
2945;DHT22;1482;51.398;7.128;2023-08-06T08:06:58;23.10;1.00
2945;DHT22;1482;51.398;7.128;2023-08-06T08:09:24;23.10;1.00
2945;DHT22;1482;51.398;7.128;2023-08-06T08:11:49;23.00;1.00
2945;DHT22;1482;51.398;7.128;2023-08-06T08:14:15;23.00;1.00
2945;DHT22;1482;51.398;7.128;2023-08-06T08:16:41;23.10;1.00
2945;DHT22;1482;51.398;7.128;2023-08-06T08:19:07;23.10;1.00
2945;DHT22;1482;51.398;7.128;2023-08-06T08:21:32;23.20;1.00
2945;DHT22;1482;51.398;7.128;2023-08-06T08:24:00;23.20;1.00
2945;DHT22;1482;51.398;7.128;2023-08-06T08:26:26;23.50;1.00
2945;DHT22;1482;51.398;7.128;2023-08-06T08:28:53;23.70;1.00
2945;DHT22;1482;51.398;7.128;2023-08-06T08:31:19;23.80;1.00
2945;DHT22;1482;51.398;7.128;2023-08-06T08:33:44;24.00;1.00
2945;DHT22;1482;51.398;7.128;2023-08-06T08:36:10;24.10;1.00
2945;DHT22;1482;51.398;7.128;2023-08-06T08:38:35;24.10;1.00
2945;DHT22;1482;51.398;7.128;2023-08-06T08:41:01;24.00;1.00
2945;DHT22;1482;51.398;7.128;2023-08-06T08:43:27;23.90;1.00
2945;DHT22;1482;51.398;7.128;2023-08-06T08:45:54;23.80;1.00
2945;DHT22;1482;51.398;7.128;2023-08-06T08:48:26;23.70;1.00
2945;DHT22;1482;51.398;7.128;2023-08-06T08:50:53;23.60;1.00
2945;DHT22;1482;51.398;7.128;2023-08-06T08:53:19;23.60;1.00
2945;DHT22;1482;51.398;7.128;2023-08-06T08:55:47;23.60;1.00
2945;DHT22;1482;51.398;7.128;2023-08-06T08:58:14;23.60;1.00
2945;DHT22;1482;51.398;7.128;2023-08-06T09:00:42;23.40;1.00
2945;DHT22;1482;51.398;7.128;2023-08-06T09:03:07;23.40;1.00
2945;DHT22;1482;51.398;7.128;2023-08-06T09:05:33;23.30;1.00
2945;DHT22;1482;51.398;7.128;2023-08-06T09:08:03;23.40;1.00
2945;DHT22;1482;51.398;7.128;2023-08-06T09:10:29;23.50;1.00
2945;DHT22;1482;51.398;7.128;2023-08-06T09:12:56;23.60;1.00
2945;DHT22;1482;51.398;7.128;2023-08-06T09:15:26;23.60;1.00
2945;DHT22;1482;51.398;7.128;2023-08-06T09:17:55;23.60;1.00
2945;DHT22;1482;51.398;7.128;2023-08-06T09:20:20;23.60;1.00
2945;DHT22;1482;51.398;7.128;2023-08-06T09:22:46;23.60;1.00
2945;DHT22;1482;51.398;7.128;2023-08-06T09:25:21;23.60;1.00
2945;DHT22;1482;51.398;7.128;2023-08-06T09:27:47;23.60;1.00
2945;DHT22;1482;51.398;7.128;2023-08-06T09:30:28;23.60;1.00
2945;DHT22;1482;51.398;7.128;2023-08-06T09:32:55;23.60;1.00
2945;DHT22;1482;51.398;7.128;2023-08-06T09:35:21;23.80;1.00
2945;DHT22;1482;51.398;7.128;2023-08-06T09:37:47;23.90;1.00
2945;DHT22;1482;51.398;7.128;2023-08-06T09:40:32;24.10;1.00
2945;DHT22;1482;51.398;7.128;2023-08-06T09:42:58;24.30;1.00
2945;DHT22;1482;51.398;7.128;2023-08-06T09:45:32;24.60;1.00
2945;DHT22;1482;51.398;7.128;2023-08-06T09:47:59;24.70;1.00
2945;DHT22;1482;51.398;7.128;2023-08-06T09:50:29;24.80;1.00
2945;DHT22;1482;51.398;7.128;2023-08-06T09:52:56;25.00;1.00
2945;DHT22;1482;51.398;7.128;2023-08-06T09:55:22;25.00;1.00
2945;DHT22;1482;51.398;7.128;2023-08-06T09:57:49;25.00;1.00
2945;DHT22;1482;51.398;7.128;2023-08-06T10:00:15;24.80;1.00
2945;DHT22;1482;51.398;7.128;2023-08-06T10:02:41;24.90;1.00
2945;DHT22;1482;51.398;7.128;2023-08-06T10:05:08;25.00;1.00
2945;DHT22;1482;51.398;7.128;2023-08-06T10:07:35;25.00;1.00
2945;DHT22;1482;51.398;7.128;2023-08-06T10:10:02;25.00;1.00
2945;DHT22;1482;51.398;7.128;2023-08-06T10:12:31;25.00;1.00
2945;DHT22;1482;51.398;7.128;2023-08-06T10:15:00;25.10;1.00
2945;DHT22;1482;51.398;7.128;2023-08-06T10:17:27;25.00;1.00
2945;DHT22;1482;51.398;7.128;2023-08-06T10:19:53;24.90;1.00
2945;DHT22;1482;51.398;7.128;2023-08-06T10:22:21;25.00;1.00
2945;DHT22;1482;51.398;7.128;2023-08-06T10:24:53;25.00;1.00
2945;DHT22;1482;51.398;7.128;2023-08-06T10:27:29;25.20;1.00
2945;DHT22;1482;51.398;7.128;2023-08-06T10:30:27;25.20;1.00
2945;DHT22;1482;51.398;7.128;2023-08-06T10:32:58;25.20;1.00
2945;DHT22;1482;51.398;7.128;2023-08-06T10:35:44;25.20;1.00
2945;DHT22;1482;51.398;7.128;2023-08-06T10:40:40;25.20;1.00
2945;DHT22;1482;51.398;7.128;2023-08-06T10:43:06;25.20;1.00
2945;DHT22;1482;51.398;7.128;2023-08-06T10:45:37;25.20;1.00
2945;DHT22;1482;51.398;7.128;2023-08-06T10:48:03;25.30;1.00
2945;DHT22;1482;51.398;7.128;2023-08-06T10:50:29;25.40;1.00
2945;DHT22;1482;51.398;7.128;2023-08-06T10:52:57;25.30;1.00
2945;DHT22;1482;51.398;7.128;2023-08-06T10:55:24;25.20;1.00
2945;DHT22;1482;51.398;7.128;2023-08-06T10:57:50;25.30;1.00
2945;DHT22;1482;51.398;7.128;2023-08-06T11:00:16;25.40;1.00
2945;DHT22;1482;51.398;7.128;2023-08-06T11:02:42;25.40;1.00
2945;DHT22;1482;51.398;7.128;2023-08-06T11:05:09;25.40;1.00
2945;DHT22;1482;51.398;7.128;2023-08-06T11:07:35;25.20;1.00
2945;DHT22;1482;51.398;7.128;2023-08-06T11:10:09;24.90;1.00
2945;DHT22;1482;51.398;7.128;2023-08-06T11:12:35;24.70;1.00
2945;DHT22;1482;51.398;7.128;2023-08-06T11:15:01;24.20;1.00
2945;DHT22;1482;51.398;7.128;2023-08-06T11:17:28;23.80;1.00
2945;DHT22;1482;51.398;7.128;2023-08-06T11:19:54;23.40;1.00
2945;DHT22;1482;51.398;7.128;2023-08-06T11:22:21;23.10;1.00
2945;DHT22;1482;51.398;7.128;2023-08-06T11:24:47;22.70;1.00
2945;DHT22;1482;51.398;7.128;2023-08-06T11:27:14;22.40;1.00
2945;DHT22;1482;51.398;7.128;2023-08-06T11:29:41;22.10;1.00
2945;DHT22;1482;51.398;7.128;2023-08-06T11:32:07;21.90;1.00
2945;DHT22;1482;51.398;7.128;2023-08-06T11:34:33;21.60;1.00
2945;DHT22;1482;51.398;7.128;2023-08-06T11:36:59;21.10;1.00
2945;DHT22;1482;51.398;7.128;2023-08-06T11:39:24;20.80;8.70
2945;DHT22;1482;51.398;7.128;2023-08-06T11:41:51;20.50;23.10
2945;DHT22;1482;51.398;7.128;2023-08-06T11:44:19;20.10;40.40
2945;DHT22;1482;51.398;7.128;2023-08-06T11:46:55;19.60;64.20
2945;DHT22;1482;51.398;7.128;2023-08-06T11:52:25;18.80;99.90
2945;DHT22;1482;51.398;7.128;2023-08-06T11:55:01;18.60;99.90
2945;DHT22;1482;51.398;7.128;2023-08-06T11:57:29;18.20;99.90
2945;DHT22;1482;51.398;7.128;2023-08-06T12:00:01;18.00;99.90
2945;DHT22;1482;51.398;7.128;2023-08-06T12:02:33;17.70;99.90
2945;DHT22;1482;51.398;7.128;2023-08-06T12:05:14;17.60;99.90
2945;DHT22;1482;51.398;7.128;2023-08-06T12:10:15;17.30;99.90
2945;DHT22;1482;51.398;7.128;2023-08-06T12:12:41;17.30;99.90
2945;DHT22;1482;51.398;7.128;2023-08-06T12:15:08;17.20;1.00
2945;DHT22;1482;51.398;7.128;2023-08-06T12:17:35;17.20;1.00
2945;DHT22;1482;51.398;7.128;2023-08-06T12:20:01;17.00;1.00
2945;DHT22;1482;51.398;7.128;2023-08-06T12:22:27;17.00;1.00
2945;DHT22;1482;51.398;7.128;2023-08-06T12:24:53;16.90;1.00
2945;DHT22;1482;51.398;7.128;2023-08-06T12:27:18;16.90;25.20
2945;DHT22;1482;51.398;7.128;2023-08-06T12:29:45;16.90;99.90
2945;DHT22;1482;51.398;7.128;2023-08-06T12:32:12;16.90;99.90
2945;DHT22;1482;51.398;7.128;2023-08-06T12:34:42;16.80;27.50
2945;DHT22;1482;51.398;7.128;2023-08-06T12:37:08;16.80;20.50
2945;DHT22;1482;51.398;7.128;2023-08-06T12:39:34;16.70;1.00
2945;DHT22;1482;51.398;7.128;2023-08-06T12:42:05;16.80;1.00
2945;DHT22;1482;51.398;7.128;2023-08-06T12:44:31;16.90;1.00
2945;DHT22;1482;51.398;7.128;2023-08-06T12:46:57;16.90;1.00
2945;DHT22;1482;51.398;7.128;2023-08-06T12:49:24;16.90;1.00
2945;DHT22;1482;51.398;7.128;2023-08-06T12:51:50;16.90;1.00
2945;DHT22;1482;51.398;7.128;2023-08-06T12:54:20;16.90;1.00
2945;DHT22;1482;51.398;7.128;2023-08-06T12:56:46;16.90;1.00
2945;DHT22;1482;51.398;7.128;2023-08-06T12:59:14;16.70;1.00
2945;DHT22;1482;51.398;7.128;2023-08-06T13:01:40;16.70;1.00
2945;DHT22;1482;51.398;7.128;2023-08-06T13:04:06;16.70;1.00
2945;DHT22;1482;51.398;7.128;2023-08-06T13:06:31;16.70;1.00
2945;DHT22;1482;51.398;7.128;2023-08-06T13:09:11;16.70;1.00
2945;DHT22;1482;51.398;7.128;2023-08-06T13:11:38;16.70;1.00
2945;DHT22;1482;51.398;7.128;2023-08-06T13:14:09;16.70;1.00
2945;DHT22;1482;51.398;7.128;2023-08-06T13:16:36;16.70;14.40
2945;DHT22;1482;51.398;7.128;2023-08-06T13:19:02;16.70;1.00
2945;DHT22;1482;51.398;7.128;2023-08-06T13:21:35;16.70;1.00
2945;DHT22;1482;51.398;7.128;2023-08-06T13:24:16;16.80;1.00
2945;DHT22;1482;51.398;7.128;2023-08-06T13:26:42;16.80;32.50
2945;DHT22;1482;51.398;7.128;2023-08-06T13:29:08;16.90;1.00
2945;DHT22;1482;51.398;7.128;2023-08-06T13:31:33;17.00;1.00
2945;DHT22;1482;51.398;7.128;2023-08-06T13:33:59;17.00;1.00
2945;DHT22;1482;51.398;7.128;2023-08-06T13:36:26;17.00;1.00
2945;DHT22;1482;51.398;7.128;2023-08-06T13:38:52;17.00;1.00
2945;DHT22;1482;51.398;7.128;2023-08-06T13:41:17;17.00;1.00
2945;DHT22;1482;51.398;7.128;2023-08-06T13:43:43;16.90;1.00
2945;DHT22;1482;51.398;7.128;2023-08-06T13:46:11;16.90;1.00
2945;DHT22;1482;51.398;7.128;2023-08-06T13:48:42;16.90;1.00
2945;DHT22;1482;51.398;7.128;2023-08-06T13:51:09;16.90;1.00
2945;DHT22;1482;51.398;7.128;2023-08-06T13:53:35;16.90;1.00
2945;DHT22;1482;51.398;7.128;2023-08-06T13:56:00;17.00;1.00
2945;DHT22;1482;51.398;7.128;2023-08-06T13:58:26;17.00;1.00
2945;DHT22;1482;51.398;7.128;2023-08-06T14:00:53;16.90;1.00
2945;DHT22;1482;51.398;7.128;2023-08-06T14:03:20;16.90;1.00
2945;DHT22;1482;51.398;7.128;2023-08-06T14:05:45;17.00;1.00
2945;DHT22;1482;51.398;7.128;2023-08-06T14:08:11;17.10;1.00
2945;DHT22;1482;51.398;7.128;2023-08-06T14:10:36;17.10;1.00
2945;DHT22;1482;51.398;7.128;2023-08-06T14:13:02;17.20;1.00
2945;DHT22;1482;51.398;7.128;2023-08-06T14:15:28;17.40;1.00
2945;DHT22;1482;51.398;7.128;2023-08-06T14:17:53;17.40;1.00
2945;DHT22;1482;51.398;7.128;2023-08-06T14:20:19;17.40;1.00
2945;DHT22;1482;51.398;7.128;2023-08-06T14:22:44;17.40;1.00
2945;DHT22;1482;51.398;7.128;2023-08-06T14:25:10;17.50;1.00
2945;DHT22;1482;51.398;7.128;2023-08-06T14:27:35;17.50;1.00
2945;DHT22;1482;51.398;7.128;2023-08-06T14:30:01;17.40;99.90
2945;DHT22;1482;51.398;7.128;2023-08-06T14:32:28;17.40;99.90
2945;DHT22;1482;51.398;7.128;2023-08-06T14:34:54;17.30;99.90
2945;DHT22;1482;51.398;7.128;2023-08-06T14:37:19;17.30;99.90
2945;DHT22;1482;51.398;7.128;2023-08-06T14:39:45;17.10;99.90
2945;DHT22;1482;51.398;7.128;2023-08-06T14:42:10;16.80;99.90
2945;DHT22;1482;51.398;7.128;2023-08-06T14:44:36;16.80;99.90
2945;DHT22;1482;51.398;7.128;2023-08-06T14:47:01;16.80;1.00
2945;DHT22;1482;51.398;7.128;2023-08-06T14:49:27;16.70;99.90
2945;DHT22;1482;51.398;7.128;2023-08-06T14:51:53;16.70;1.00
2945;DHT22;1482;51.398;7.128;2023-08-06T14:54:18;16.70;1.00
2945;DHT22;1482;51.398;7.128;2023-08-06T14:56:44;16.70;1.00
2945;DHT22;1482;51.398;7.128;2023-08-06T14:59:09;16.70;1.00
2945;DHT22;1482;51.398;7.128;2023-08-06T15:01:35;16.60;1.00
2945;DHT22;1482;51.398;7.128;2023-08-06T15:04:00;16.60;1.00
2945;DHT22;1482;51.398;7.128;2023-08-06T15:06:26;16.60;1.00
2945;DHT22;1482;51.398;7.128;2023-08-06T15:08:51;16.50;1.00
2945;DHT22;1482;51.398;7.128;2023-08-06T15:11:17;16.60;1.00
2945;DHT22;1482;51.398;7.128;2023-08-06T15:13:42;16.50;1.00
2945;DHT22;1482;51.398;7.128;2023-08-06T15:16:08;16.50;1.00
2945;DHT22;1482;51.398;7.128;2023-08-06T15:18:34;16.50;1.00
2945;DHT22;1482;51.398;7.128;2023-08-06T15:20:59;16.50;1.00
2945;DHT22;1482;51.398;7.128;2023-08-06T15:23:25;16.60;1.00
2945;DHT22;1482;51.398;7.128;2023-08-06T15:25:50;16.60;1.00
2945;DHT22;1482;51.398;7.128;2023-08-06T15:28:16;16.70;1.00
2945;DHT22;1482;51.398;7.128;2023-08-06T15:30:51;16.80;1.00
2945;DHT22;1482;51.398;7.128;2023-08-06T15:33:18;16.90;1.00
2945;DHT22;1482;51.398;7.128;2023-08-06T15:35:44;16.90;1.00
2945;DHT22;1482;51.398;7.128;2023-08-06T15:38:09;17.00;1.00
2945;DHT22;1482;51.398;7.128;2023-08-06T15:40:35;17.00;99.90
2945;DHT22;1482;51.398;7.128;2023-08-06T15:43:00;17.00;99.90
2945;DHT22;1482;51.398;7.128;2023-08-06T15:45:26;17.00;99.90
2945;DHT22;1482;51.398;7.128;2023-08-06T15:47:52;17.00;99.90
2945;DHT22;1482;51.398;7.128;2023-08-06T15:50:18;17.00;99.90
2945;DHT22;1482;51.398;7.128;2023-08-06T15:52:43;17.00;99.90
2945;DHT22;1482;51.398;7.128;2023-08-06T15:55:09;17.00;99.90
2945;DHT22;1482;51.398;7.128;2023-08-06T15:57:35;16.90;99.90
2945;DHT22;1482;51.398;7.128;2023-08-06T16:00:02;16.90;99.90
2945;DHT22;1482;51.398;7.128;2023-08-06T16:02:28;16.90;99.90
2945;DHT22;1482;51.398;7.128;2023-08-06T16:04:55;16.90;99.90
2945;DHT22;1482;51.398;7.128;2023-08-06T16:07:21;16.90;99.90
2945;DHT22;1482;51.398;7.128;2023-08-06T16:09:49;16.90;99.90
2945;DHT22;1482;51.398;7.128;2023-08-06T16:12:14;16.80;99.90
2945;DHT22;1482;51.398;7.128;2023-08-06T16:14:44;16.80;99.90
2945;DHT22;1482;51.398;7.128;2023-08-06T16:17:09;16.70;99.90
2945;DHT22;1482;51.398;7.128;2023-08-06T16:19:35;16.70;99.90
2945;DHT22;1482;51.398;7.128;2023-08-06T16:22:00;16.60;99.90
2945;DHT22;1482;51.398;7.128;2023-08-06T16:24:26;16.60;99.90